Terminal Aerodrome Forecast
Issued by NWS Charleston, WV

Current Version | Previous Version | Text Only | Print | Product List | Glossary Off
Versions: 1 2 3 4 5 6 7 8 9 10 11 12 13 14 15 16 17 18 19 20 21 22 23 24 25

815
FTUS41 KRLX 142056 AAA
TAFHTS
TAF AMD
KHTS 142056Z 1421/1518 20006KT P6SM SCT100
     FM150600 00000KT 4SM BR SCT100
     FM150900 00000KT 2SM BR SCT120
     FM151300 00000KT 3SM BR BKN035
     FM151400 23004KT P6SM BKN040=

USA.gov is the U.S. government's official web portal to all federal, state and local government web resources and services.